Time;durP1;ratioP1;P1;durP2;ratioP2;P2;SDS_P1;SDS_P2;PMS_P1;PMS_P2;Temp;Humidity;BMP_temperature;BMP_pressure;BME280_temperature;BME280_humidity;BME280_pressure;Samples;Min_cycle;Max_cycle;Signal;HPM_P1;HPM_P2
2022/04/14 00:00:53;;;;;;;27.80;14.75;;;11.40;99.90;;;;;;5053255;28;20555;-75
2022/04/14 00:03:19;;;;;;;;;;;10.80;99.90;;;;;;5053662;28;20057;-75
2022/04/14 00:05:45;;;;;;;26.23;15.88;;;10.60;99.90;;;;;;5053166;28;19924;-76
2022/04/14 00:08:11;;;;;;;28.02;16.77;;;11.50;99.90;;;;;;5053193;28;20106;-75
2022/04/14 00:10:37;;;;;;;29.40;16.83;;;11.20;99.90;;;;;;5035189;28;20072;-76
2022/04/14 00:13:03;;;;;;;31.58;17.70;;;10.40;99.90;;;;;;5053004;28;20045;-76
2022/04/14 00:15:28;;;;;;;28.63;17.05;;;11.20;99.90;;;;;;5051990;28;20194;-76
2022/04/14 00:17:55;;;;;;;27.98;15.88;;;10.70;99.90;;;;;;5053027;28;20052;-75
2022/04/14 00:20:20;;;;;;;;;;;10.60;99.90;;;;;;5053317;28;20045;-76
2022/04/14 00:22:46;;;;;;;27.65;16.20;;;11.30;99.90;;;;;;5052863;28;19932;-76
2022/04/14 00:25:12;;;;;;;33.25;17.20;;;11.40;99.90;;;;;;5052894;28;20044;-75
2022/04/14 00:27:38;;;;;;;28.52;17.48;;;10.50;99.90;;;;;;5052834;28;20045;-76
2022/04/14 00:30:05;;;;;;;29.08;17.85;;;10.00;99.90;;;;;;5051823;28;20145;-77
2022/04/14 00:32:31;;;;;;;30.65;18.08;;;10.00;99.90;;;;;;5052680;28;20048;-77
2022/04/14 00:34:57;;;;;;;33.33;18.55;;;10.30;99.90;;;;;;5034395;28;20442;-77
2022/04/14 00:37:23;;;;;;;;;;;10.10;99.90;;;;;;5053130;28;20045;-76
2022/04/14 00:39:51;;;;;;;35.28;19.40;;;10.60;99.90;;;;;;5052695;28;19983;-76
2022/04/14 00:42:17;;;;;;;33.45;19.95;;;10.30;99.90;;;;;;5052593;28;20122;-77
2022/04/14 00:44:43;;;;;;;31.98;17.48;;;10.00;99.90;;;;;;5052659;28;20053;-77
2022/04/14 00:47:12;;;;;;;31.35;18.90;;;9.90;99.90;;;;;;5034792;28;20614;-76
2022/04/14 00:49:38;;;;;;;30.33;18.50;;;10.20;99.90;;;;;;5034932;28;20057;-76
2022/04/14 00:52:05;;;;;;;32.20;19.25;;;10.20;99.90;;;;;;5052457;28;20041;-77
2022/04/14 00:54:31;;;;;;;33.00;19.17;;;10.10;99.90;;;;;;5051438;28;20485;-76
2022/04/14 00:56:58;;;;;;;30.95;18.67;;;9.90;99.90;;;;;;5051201;28;20076;-75
2022/04/14 00:59:24;;;;;;;30.48;18.60;;;9.90;99.90;;;;;;5052411;28;20045;-75
2022/04/14 01:01:50;;;;;;;;;;;9.90;99.90;;;;;;5052954;28;20397;-75
2022/04/14 01:04:17;;;;;;;34.33;19.52;;;10.60;99.90;;;;;;5034861;28;19928;-75
2022/04/14 01:06:44;;;;;;;35.20;20.08;;;9.60;99.90;;;;;;5052370;28;20433;-75
2022/04/14 01:09:20;;;;;;;38.35;20.27;;;9.50;99.90;;;;;;5052351;28;20140;-77
2022/04/14 01:11:52;;;;;;;40.25;22.38;;;10.40;99.90;;;;;;5052019;28;20488;-75
2022/04/14 01:14:26;;;;;;;34.85;21.38;;;9.60;99.90;;;;;;5052359;28;20048;-76
2022/04/14 01:16:53;;;;;;;36.92;21.35;;;9.60;99.90;;;;;;5052267;28;20131;-75
2022/04/14 01:19:19;;;;;;;36.75;22.23;;;10.30;99.90;;;;;;5052209;28;20092;-75
2022/04/14 01:21:49;;;;;;;40.55;22.23;;;9.60;99.90;;;;;;5034506;28;20091;-75
2022/04/14 01:24:15;;;;;;;39.67;20.58;;;10.10;99.90;;;;;;5034500;28;20098;-76
2022/04/14 01:26:41;;;;;;;37.08;21.02;;;9.30;99.90;;;;;;5052195;28;20481;-75
2022/04/14 01:29:18;;;;;;;33.22;21.27;;;9.50;99.90;;;;;;5052258;28;20053;-75
2022/04/14 01:31:43;;;;;;;37.38;21.80;;;11.10;99.90;;;;;;5052401;28;20049;-75
2022/04/14 01:34:09;;;;;;;42.40;23.00;;;9.80;99.90;;;;;;5018118;28;20053;-76
2022/04/14 01:36:35;;;;;;;46.00;23.95;;;9.30;99.90;;;;;;5052137;28;20111;-77
2022/04/14 01:39:00;;;;;;;45.55;24.45;;;9.30;99.90;;;;;;5051828;28;20057;-76
2022/04/14 01:41:26;;;;;;;40.50;22.55;;;9.10;99.90;;;;;;5052136;28;20052;-76
2022/04/14 01:43:52;;;;;;;43.03;23.60;;;9.10;99.90;;;;;;5052050;28;20481;-74
2022/04/14 01:46:18;;;;;;;39.80;22.27;;;9.10;99.90;;;;;;5054626;28;20508;-76
2022/04/14 01:48:43;;;;;;;37.80;23.63;;;9.30;99.90;;;;;;5054737;28;20057;-74
2022/04/14 01:51:09;;;;;;;45.65;24.67;;;10.20;99.90;;;;;;5055650;28;20048;-75
2022/04/14 01:53:35;;;;;;;46.25;27.13;;;8.90;99.90;;;;;;5055649;28;20390;-75
2022/04/14 01:56:00;;;;;;;53.63;28.65;;;10.00;99.90;;;;;;5055586;28;20075;-75
2022/04/14 01:58:26;;;;;;;56.05;30.35;;;9.70;99.90;;;;;;5055594;28;20045;-77
2022/04/14 02:00:52;;;;;;;54.83;29.15;;;9.10;99.90;;;;;;5055927;28;20047;-75
2022/04/14 02:03:17;;;;;;;55.55;28.38;;;9.20;99.90;;;;;;5037894;28;20052;-75
2022/04/14 02:05:43;;;;;;;68.85;30.13;;;9.90;99.90;;;;;;5037896;28;20124;-75
2022/04/14 02:08:09;;;;;;;52.83;28.38;;;9.70;99.90;;;;;;5037668;28;20048;-75
2022/04/14 02:10:35;;;;;;;54.50;29.10;;;9.00;99.90;;;;;;5055352;28;20057;-76
2022/04/14 02:13:01;;;;;;;63.45;31.85;;;8.80;99.90;;;;;;5037496;28;20048;-76
2022/04/14 02:15:26;;;;;;;65.93;32.33;;;8.70;99.90;;;;;;5055233;28;20049;-75
2022/04/14 02:17:52;;;;;;;71.80;32.80;;;9.40;99.90;;;;;;5055177;28;20373;-75
2022/04/14 02:20:18;;;;;;;55.28;30.92;;;8.70;99.90;;;;;;5055184;28;20400;-75
2022/04/14 02:22:43;;;;;;;65.00;33.03;;;8.70;99.90;;;;;;5055084;28;20140;-74
2022/04/14 02:25:10;;;;;;;58.33;32.05;;;8.60;99.90;;;;;;5055068;28;20053;-75
2022/04/14 02:27:35;;;;;;;59.17;32.47;;;9.50;99.90;;;;;;5055059;28;20190;-75
2022/04/14 02:30:02;;;;;;;70.82;34.30;;;8.40;99.90;;;;;;5054986;28;20128;-74
2022/04/14 02:32:27;;;;;;;;;;;8.70;99.90;;;;;;5055322;28;20045;-76
2022/04/14 02:34:53;;;;;;;71.10;33.83;;;8.50;99.90;;;;;;5055096;28;19921;-75
2022/04/14 02:37:18;;;;;;;74.22;36.95;;;9.40;99.90;;;;;;5054836;28;20053;-75
2022/04/14 02:39:44;;;;;;;70.10;38.78;;;8.40;99.90;;;;;;5054440;28;20056;-75
2022/04/14 02:42:10;;;;;;;83.22;41.38;;;9.60;99.90;;;;;;5037174;28;20831;-75
2022/04/14 02:44:36;;;;;;;91.07;40.25;;;9.90;99.90;;;;;;5054748;28;20053;-76
2022/04/14 02:47:01;;;;;;;97.15;41.90;;;9.50;99.90;;;;;;5054668;28;20440;-75
2022/04/14 02:49:27;;;;;;;91.82;43.83;;;8.50;99.90;;;;;;5054727;28;20116;-75
2022/04/14 02:51:53;;;;;;;93.53;40.63;;;8.40;99.90;;;;;;5054523;28;20037;-75
2022/04/14 02:54:18;;;;;;;77.78;42.17;;;8.60;99.90;;;;;;5036984;28;20045;-75
2022/04/14 02:56:44;;;;;;;95.90;45.08;;;10.40;99.90;;;;;;5053628;28;20048;-76
2022/04/14 02:59:10;;;;;;;89.53;41.55;;;9.70;99.90;;;;;;5020056;28;20045;-75
2022/04/14 03:01:35;;;;;;;86.07;41.58;;;8.50;99.90;;;;;;5054404;28;20053;-74
2022/04/14 03:04:01;;;;;;;95.78;42.53;;;9.00;99.90;;;;;;5036509;28;20446;-76
2022/04/14 03:06:27;;;;;;;84.57;43.78;;;8.40;99.90;;;;;;5054320;28;20569;-75
2022/04/14 03:08:52;;;;;;;89.80;43.35;;;8.60;99.90;;;;;;5054266;28;20045;-75
2022/04/14 03:11:18;;;;;;;84.65;42.33;;;8.40;99.90;;;;;;5036358;28;20106;-75
2022/04/14 03:13:44;;;;;;;88.70;41.72;;;9.90;99.90;;;;;;5054142;28;20048;-76
2022/04/14 03:16:09;;;;;;;93.38;42.30;;;8.40;99.90;;;;;;5054203;28;20124;-74
2022/04/14 03:18:35;;;;;;;86.55;42.15;;;8.20;99.90;;;;;;5054032;28;20052;-73
2022/04/14 03:21:01;;;;;;;78.53;39.22;;;8.10;99.90;;;;;;5036232;28;20378;-73
2022/04/14 03:23:27;;;;;;;;;;;8.20;99.90;;;;;;5054433;28;20088;-75
2022/04/14 03:25:53;;;;;;;67.30;38.78;;;8.80;99.90;;;;;;5053867;28;19975;-74
2022/04/14 03:28:18;;;;;;;86.68;41.15;;;8.30;99.90;;;;;;5053880;28;20131;-74
2022/04/14 03:30:45;;;;;;;92.40;42.88;;;8.20;99.90;;;;;;5053850;28;20044;-74
2022/04/14 03:33:10;;;;;;;;;;;9.30;99.90;;;;;;5054123;28;20084;-74
2022/04/14 03:35:36;;;;;;;79.97;39.63;;;8.30;99.90;;;;;;5053685;28;20005;-75
2022/04/14 03:38:02;;;;;;;86.07;40.95;;;8.70;99.90;;;;;;5036029;28;20045;-76
2022/04/14 03:40:27;;;;;;;91.70;42.28;;;8.10;99.90;;;;;;5053128;28;20057;-75
2022/04/14 03:42:53;;;;;;;83.72;40.47;;;8.80;99.90;;;;;;5053535;28;20045;-75
2022/04/14 03:45:19;;;;;;;63.28;36.85;;;8.10;99.90;;;;;;5053579;28;20049;-75
2022/04/14 03:47:44;;;;;;;88.70;40.67;;;8.10;99.90;;;;;;5053483;28;20055;-74
2022/04/14 03:50:10;;;;;;;78.53;38.67;;;8.70;99.90;;;;;;5053436;28;20048;-74
2022/04/14 03:52:36;;;;;;;64.95;36.15;;;8.10;99.90;;;;;;5053323;28;20546;-75
2022/04/14 03:55:02;;;;;;;69.35;37.25;;;7.90;99.90;;;;;;5035653;28;20044;-75
2022/04/14 03:57:28;;;;;;;77.10;37.70;;;8.10;99.90;;;;;;5053438;28;20052;-74
2022/04/14 03:59:53;;;;;;;61.88;35.78;;;7.90;99.90;;;;;;5053301;28;20075;-73
2022/04/14 04:02:19;;;;;;;72.25;37.22;;;8.50;99.90;;;;;;5053301;28;20080;-73
2022/04/14 04:04:45;;;;;;;71.13;37.90;;;7.70;99.90;;;;;;5035313;28;20052;-75
2022/04/14 04:07:10;;;;;;;67.93;36.97;;;8.60;99.90;;;;;;5053373;28;20113;-72
2022/04/14 04:09:38;;;;;;;68.53;38.70;;;8.10;99.90;;;;;;5052261;28;20439;-74
2022/04/14 04:12:04;;;;;;;77.55;40.30;;;7.80;99.90;;;;;;5052997;28;20080;-74
2022/04/14 04:14:30;;;;;;;91.00;40.58;;;7.80;99.90;;;;;;5053048;28;20087;-74
2022/04/14 04:16:56;;;;;;;75.22;39.95;;;7.70;99.90;;;;;;5053346;28;20084;-74
2022/04/14 04:19:21;;;;;;;96.43;43.78;;;8.70;99.90;;;;;;5035206;28;20045;-75
2022/04/14 04:21:47;;;;;;;79.80;41.05;;;9.40;99.90;;;;;;5035330;28;20049;-77
2022/04/14 04:24:13;;;;;;;73.80;39.72;;;7.40;99.90;;;;;;5052921;28;20404;-75
2022/04/14 04:26:38;;;;;;;73.93;40.70;;;8.20;99.90;;;;;;5052867;28;20041;-75
2022/04/14 04:29:04;;;;;;;73.88;38.72;;;7.80;99.90;;;;;;5034857;28;20428;-75
2022/04/14 04:31:30;;;;;;;93.18;42.13;;;9.10;99.90;;;;;;5052811;28;20504;-74
2022/04/14 04:33:55;;;;;;;85.38;41.83;;;7.80;99.90;;;;;;5034879;28;20079;-75
2022/04/14 04:36:21;;;;;;;79.45;43.13;;;8.80;99.90;;;;;;5034955;28;20049;-76
2022/04/14 04:38:47;;;;;;;85.57;45.00;;;7.20;99.90;;;;;;5052422;28;20060;-74
2022/04/14 04:41:13;;;;;;;75.57;39.30;;;7.70;99.90;;;;;;5052655;28;20067;-74
2022/04/14 04:43:39;;;;;;;70.22;38.75;;;8.50;99.90;;;;;;5052605;28;20049;-73
2022/04/14 04:46:05;;;;;;;72.70;38.35;;;7.70;99.90;;;;;;5052542;28;20052;-75
2022/04/14 04:48:30;;;;;;;94.07;42.97;;;7.30;99.90;;;;;;5052593;28;20044;-73
2022/04/14 04:50:56;;;;;;;69.72;38.42;;;7.70;99.90;;;;;;5052789;28;20048;-74
2022/04/14 04:53:22;;;;;;;77.38;39.20;;;8.40;99.90;;;;;;5052545;28;20526;-74
2022/04/14 04:55:47;;;;;;;73.00;38.78;;;7.80;99.90;;;;;;5052500;28;20401;-75
2022/04/14 04:58:14;;;;;;;82.30;42.03;;;7.60;99.90;;;;;;5052427;28;20041;-74
2022/04/14 05:00:40;;;;;;;;;;;8.70;99.90;;;;;;5052822;28;20045;-75
2022/04/14 05:03:10;;;;;;;110.10;45.00;;;8.50;99.90;;;;;;5052435;28;20327;-74
2022/04/14 05:05:37;;;;;;;109.05;44.95;;;7.40;99.90;;;;;;5052240;28;20087;-74
2022/04/14 05:08:04;;;;;;;111.70;45.30;;;7.30;99.90;;;;;;5052291;28;20052;-75
2022/04/14 05:10:29;;;;;;;154.68;48.05;;;7.40;99.90;;;;;;5052345;28;20124;-74
2022/04/14 05:12:55;;;;;;;144.95;46.00;;;7.20;99.90;;;;;;5052371;28;20438;-74
2022/04/14 05:15:21;;;;;;;101.10;44.90;;;7.40;99.90;;;;;;5052285;28;20041;-73
2022/04/14 05:17:47;;;;;;;120.43;45.92;;;7.10;99.90;;;;;;5052281;28;20045;-74
2022/04/14 05:20:12;;;;;;;93.38;44.28;;;8.00;99.90;;;;;;5053552;28;20094;-75
2022/04/14 05:22:38;;;;;;;99.18;45.05;;;7.40;99.90;;;;;;5056312;28;20566;-76
2022/04/14 05:25:04;;;;;;;98.93;45.38;;;8.10;99.90;;;;;;5022080;28;20049;-74
2022/04/14 05:27:30;;;;;;;99.32;46.17;;;7.50;99.90;;;;;;5056130;28;20123;-74
2022/04/14 05:29:56;;;;;;;102.38;48.05;;;7.50;99.90;;;;;;5021854;28;20186;-74
2022/04/14 05:32:22;;;;;;;131.75;51.63;;;7.70;99.90;;;;;;5054768;28;20442;-74
2022/04/14 05:34:47;;;;;;;141.23;55.42;;;9.00;99.90;;;;;;5056031;28;20061;-73
2022/04/14 05:37:13;;;;;;;114.88;51.50;;;7.90;99.90;;;;;;5038132;28;20127;-75
2022/04/14 05:39:39;;;;;;;120.78;51.65;;;7.60;99.90;;;;;;5037796;28;20052;-75
2022/04/14 05:42:05;;;;;;;115.13;51.20;;;8.10;99.90;;;;;;5038256;28;20049;-75
2022/04/14 05:44:30;;;;;;;153.35;55.33;;;7.80;99.90;;;;;;5055823;28;20095;-74
2022/04/14 05:46:56;;;;;;;145.60;57.17;;;8.00;99.90;;;;;;5055833;28;20044;-74
2022/04/14 05:49:21;;;;;;;143.60;55.13;;;9.60;99.90;;;;;;5021654;28;20559;-74
2022/04/14 05:51:47;;;;;;;131.15;54.22;;;8.50;99.90;;;;;;5055570;28;20041;-75
2022/04/14 05:54:14;;;;;;;150.68;57.42;;;8.40;99.90;;;;;;5055760;28;20095;-76
2022/04/14 05:56:40;;;;;;;145.32;56.88;;;8.20;99.90;;;;;;5055594;28;20504;-76
2022/04/14 05:59:07;;;;;;;151.05;60.47;;;8.50;99.90;;;;;;5055531;28;20451;-75
2022/04/14 06:01:33;;;;;;;147.48;60.55;;;8.50;99.90;;;;;;5055549;28;20047;-75
2022/04/14 06:03:59;;;;;;;130.93;57.42;;;10.20;99.90;;;;;;5037815;28;20481;-74
2022/04/14 06:06:25;;;;;;;132.98;59.53;;;9.20;99.90;;;;;;5037709;28;20045;-74
2022/04/14 06:08:50;;;;;;;124.47;59.33;;;8.90;99.90;;;;;;5055466;28;20477;-75
2022/04/14 06:11:16;;;;;;;117.80;55.08;;;8.90;99.90;;;;;;5055562;28;20377;-75
2022/04/14 06:13:41;;;;;;;127.20;56.15;;;10.60;99.90;;;;;;5055334;28;20049;-75
2022/04/14 06:16:07;;;;;;;131.50;57.13;;;9.30;99.90;;;;;;5037450;28;20049;-76
2022/04/14 06:18:33;;;;;;;132.23;58.20;;;9.20;99.90;;;;;;5055255;28;20072;-76
2022/04/14 06:20:58;;;;;;;119.53;53.50;;;9.50;99.90;;;;;;5037568;28;20052;-79
2022/04/14 06:23:24;;;;;;;105.78;54.70;;;9.50;99.90;;;;;;5055377;28;20473;-77
2022/04/14 06:25:50;;;;;;;112.85;52.83;;;10.50;99.90;;;;;;5037501;28;20373;-74
2022/04/14 06:28:19;;;;;;;112.68;50.80;;;9.30;99.90;;;;;;5054767;28;20132;-76
2022/04/14 06:30:49;;;;;;;102.00;52.97;;;9.50;99.90;;;;;;5037090;28;20431;-74
2022/04/14 06:33:16;;;;;;;93.63;48.83;;;9.70;99.90;;;;;;5053901;28;20142;-76
2022/04/14 06:35:42;;;;;;;100.15;51.33;;;9.80;99.90;;;;;;5055155;28;20365;-75
2022/04/14 06:38:08;;;;;;;;;;;9.50;99.90;;;;;;5055075;28;20088;-77
2022/04/14 06:40:35;;;;;;;105.30;49.25;;;9.70;99.90;;;;;;5054867;28;19990;-78
2022/04/14 06:43:01;;;;;;;89.25;47.85;;;10.00;99.90;;;;;;5057285;28;20072;-75
2022/04/14 06:45:27;;;;;;;90.80;47.15;;;9.70;99.90;;;;;;5054257;28;20160;-82
2022/04/14 06:47:53;;;;;;;91.38;47.80;;;10.00;99.90;;;;;;5068269;28;20547;-77
2022/04/14 06:50:19;;;;;;;84.25;44.55;;;10.10;99.90;;;;;;5048040;28;20048;-75
2022/04/14 06:52:45;;;;;;;79.93;45.13;;;10.20;99.90;;;;;;5072847;28;20055;-76
2022/04/14 06:55:10;;;;;;;87.57;46.60;;;10.10;99.90;;;;;;5073157;28;20044;-75
2022/04/14 06:57:36;;;;;;;83.35;46.45;;;10.70;99.90;;;;;;5033237;28;20045;-75
2022/04/14 07:00:03;;;;;;;88.35;46.35;;;10.70;99.90;;;;;;5072753;28;20040;-76
2022/04/14 07:02:31;;;;;;;79.22;42.63;;;10.30;99.90;;;;;;5073551;28;20092;-75
2022/04/14 07:04:58;;;;;;;65.22;41.42;;;11.20;99.90;;;;;;5069414;28;20404;-76
2022/04/14 07:07:24;;;;;;;70.90;41.33;;;11.00;99.90;;;;;;5072962;28;20480;-74
2022/04/14 07:09:49;;;;;;;75.53;40.15;;;10.80;99.90;;;;;;5073399;28;20052;-75
2022/04/14 07:12:15;;;;;;;61.95;36.70;;;10.60;99.90;;;;;;5073153;28;20044;-74
2022/04/14 07:14:40;;;;;;;75.07;39.55;;;11.50;99.90;;;;;;5056308;28;20044;-74
2022/04/14 07:17:07;;;;;;;54.70;35.10;;;11.00;99.90;;;;;;5056428;28;20083;-73
2022/04/14 07:19:32;;;;;;;63.25;36.78;;;11.20;99.90;;;;;;5074035;28;20051;-73
2022/04/14 07:21:58;;;;;;;54.53;35.58;;;11.70;99.90;;;;;;5073987;28;20033;-73
2022/04/14 07:24:24;;;;;;;59.97;35.72;;;11.30;99.90;;;;;;5073909;28;20131;-73
2022/04/14 07:26:49;;;;;;;58.55;34.15;;;11.20;99.90;;;;;;5056031;28;20052;-75
2022/04/14 07:29:15;;;;;;;56.60;33.80;;;11.70;99.90;;;;;;5073842;28;20045;-74
2022/04/14 07:31:42;;;;;;;50.53;32.60;;;12.10;99.90;;;;;;5073750;28;20040;-73
2022/04/14 07:34:10;;;;;;;51.88;29.88;;;11.80;99.90;;;;;;5073769;28;20044;-74
2022/04/14 07:36:36;;;;;;;47.25;28.95;;;11.80;99.90;;;;;;5073717;28;20045;-75
2022/04/14 07:39:04;;;;;;;44.35;28.27;;;11.60;99.90;;;;;;5073716;28;20391;-74
2022/04/14 07:41:30;;;;;;;40.55;26.45;;;11.70;99.90;;;;;;5073582;28;20140;-74
2022/04/14 07:43:56;;;;;;;43.28;27.45;;;12.10;99.90;;;;;;5073494;28;20127;-75
2022/04/14 07:46:22;;;;;;;43.25;27.17;;;12.20;99.90;;;;;;5055861;28;20099;-71
2022/04/14 07:48:47;;;;;;;43.80;25.98;;;13.50;99.90;;;;;;5055670;28;20389;-76
2022/04/14 07:51:13;;;;;;;41.60;27.00;;;13.60;99.90;;;;;;5049690;28;20040;-76
2022/04/14 07:53:39;;;;;;;41.53;26.63;;;12.50;99.90;;;;;;5047049;28;20129;-76
2022/04/14 07:56:05;;;;;;;41.95;24.52;;;12.30;99.90;;;;;;5055693;28;20489;-78
2022/04/14 07:58:32;;;;;;;38.75;24.35;;;12.60;99.90;;;;;;5050832;28;20040;-80
2022/04/14 08:00:57;;;;;;;38.55;23.67;;;13.40;99.90;;;;;;5064658;28;20048;-78
2022/04/14 08:03:23;;;;;;;38.92;23.63;;;12.50;99.90;;;;;;5071722;28;20067;-76
2022/04/14 08:05:49;;;;;;;35.42;21.48;;;12.60;99.90;;;;;;5051278;28;20052;-75
2022/04/14 08:08:19;;;;;;;36.05;22.88;;;12.20;99.90;;;;;;5064232;28;20052;-76
2022/04/14 08:10:48;;;;;;;31.52;21.05;;;12.50;99.90;;;;;;5035228;28;20049;-78
2022/04/14 08:13:14;;;;;;;30.80;20.55;;;12.50;99.90;;;;;;5052884;28;20119;-77
2022/04/14 08:15:43;;;;;;;35.00;22.80;;;12.40;99.90;;;;;;5053083;28;20065;-76
2022/04/14 08:18:09;;;;;;;33.92;22.08;;;13.00;99.90;;;;;;5052341;28;20044;-76
2022/04/14 08:20:39;;;;;;;30.63;19.80;;;13.30;99.90;;;;;;5018887;28;20081;-75
2022/04/14 08:23:07;;;;;;;32.85;20.65;;;12.80;99.90;;;;;;5035155;28;20408;-76
2022/04/14 08:25:35;;;;;;;31.67;20.50;;;12.80;99.90;;;;;;5035282;28;20052;-74
2022/04/14 08:28:05;;;;;;;34.72;21.13;;;13.00;99.90;;;;;;5052868;28;20084;-76
2022/04/14 08:30:32;;;;;;;26.35;19.33;;;13.30;99.90;;;;;;5052821;28;20048;-76
2022/04/14 08:33:00;;;;;;;33.20;20.13;;;13.30;99.90;;;;;;5052739;28;20049;-73
2022/04/14 08:35:26;;;;;;;29.75;19.70;;;13.40;99.90;;;;;;5052750;28;20048;-76
2022/04/14 08:37:52;;;;;;;30.25;19.33;;;13.50;99.90;;;;;;5052752;28;20053;-73
2022/04/14 08:40:23;;;;;;;29.23;18.10;;;13.70;99.90;;;;;;5052796;28;20057;-73
2022/04/14 08:42:56;;;;;;;27.08;19.10;;;13.70;99.90;;;;;;5052696;28;20037;-76
2022/04/14 08:45:23;;;;;;;30.20;18.38;;;13.50;99.90;;;;;;5052606;28;20041;-78
2022/04/14 08:47:53;;;;;;;32.70;19.30;;;14.00;99.90;;;;;;5052639;28;20277;-75
2022/04/14 08:50:18;;;;;;;27.35;17.88;;;13.90;99.90;;;;;;5052381;28;20517;-76
2022/04/14 08:52:44;;;;;;;30.38;18.30;;;14.10;99.90;;;;;;5034482;28;20115;-75
2022/04/14 08:55:11;;;;;;;30.92;18.42;;;14.00;99.90;;;;;;5052012;28;20098;-75
2022/04/14 08:57:41;;;;;;;26.58;18.40;;;14.10;99.90;;;;;;5018422;28;20114;-76
2022/04/14 09:00:09;;;;;;;28.02;18.35;;;14.40;99.90;;;;;;5052439;28;20055;-76
2022/04/14 09:02:35;;;;;;;27.08;18.70;;;14.20;99.90;;;;;;5052432;28;20048;-75
2022/04/14 09:05:02;;;;;;;29.75;19.80;;;14.20;99.90;;;;;;5041597;28;20049;-76
2022/04/14 09:07:28;;;;;;;26.63;18.65;;;14.10;99.90;;;;;;5068631;28;20041;-74
2022/04/14 09:09:54;;;;;;;27.50;18.25;;;14.50;99.90;;;;;;5054014;28;20048;-74
2022/04/14 09:12:19;;;;;;;24.55;16.25;;;14.50;99.90;;;;;;5071693;28;20485;-74
2022/04/14 09:14:46;;;;;;;25.48;17.70;;;14.50;99.90;;;;;;5071883;28;20452;-76
2022/04/14 09:17:12;;;;;;;20.92;14.57;;;14.70;99.90;;;;;;5036954;28;20048;-80
2022/04/14 09:19:38;;;;;;;23.30;14.40;;;14.60;99.90;;;;;;5071659;28;20228;-74
2022/04/14 09:22:03;;;;;;;;;;;14.40;99.90;;;;;;5055302;28;20070;-71
2022/04/14 09:24:51;;;;;;;20.55;13.60;;;14.60;99.90;;;;;;5051491;28;19925;-70
2022/04/14 09:27:37;;;;;;;18.45;12.10;;;14.90;99.90;;;;;;5051434;28;20480;-70
2022/04/14 09:30:08;;;;;;;23.02;13.68;;;14.80;99.90;;;;;;5051671;28;20076;-68
2022/04/14 09:32:37;;;;;;;19.70;13.13;;;14.60;99.90;;;;;;5051472;28;20033;-77
2022/04/14 09:35:31;;;;;;;20.38;12.93;;;14.70;99.90;;;;;;5033817;28;20542;-76
2022/04/14 09:38:14;;;;;;;22.77;14.00;;;14.90;99.90;;;;;;5036369;28;20040;-78
2022/04/14 09:40:40;;;;;;;19.02;13.32;;;14.90;99.90;;;;;;5070803;28;20060;-74
2022/04/14 09:43:06;;;;;;;21.02;12.38;;;15.40;99.90;;;;;;5071277;28;20499;-76
2022/04/14 09:45:35;;;;;;;;;;;15.10;99.90;;;;;;5071589;28;20056;-74
2022/04/14 09:48:10;;;;;;;19.85;12.63;;;15.00;99.90;;;;;;5071333;28;19927;-72
2022/04/14 09:50:42;;;;;;;19.42;12.82;;;15.30;99.90;;;;;;5070939;28;20598;-78
2022/04/14 09:53:12;;;;;;;18.63;12.57;;;15.10;99.90;;;;;;5071408;28;20048;-69
2022/04/14 09:55:38;;;;;;;18.45;12.45;;;15.10;99.90;;;;;;5053384;28;20118;-73
2022/04/14 09:58:05;;;;;;;18.80;12.80;;;15.00;99.90;;;;;;5071341;28;20044;-76
2022/04/14 10:00:43;;;;;;;22.08;11.98;;;15.00;99.90;;;;;;5062189;28;20048;-79
2022/04/14 10:03:14;;;;;;;18.17;12.02;;;15.10;99.90;;;;;;5051880;28;20449;-75
2022/04/14 10:05:41;;;;;;;18.48;11.18;;;15.30;99.90;;;;;;5052356;28;20048;-74
2022/04/14 10:08:08;;;;;;;21.88;12.23;;;15.00;99.90;;;;;;5073419;28;20505;-71
2022/04/14 10:10:38;;;;;;;24.58;11.32;;;15.20;99.90;;;;;;5059400;28;20048;-70
2022/04/14 10:13:06;;;;;;;19.25;11.77;;;14.90;99.90;;;;;;5054709;28;20041;-76
2022/04/14 10:15:36;;;;;;;17.95;11.18;;;15.10;99.90;;;;;;5020708;28;20049;-71
2022/04/14 10:18:06;;;;;;;19.42;12.32;;;15.10;99.90;;;;;;5047779;28;20059;-73
2022/04/14 10:20:33;;;;;;;21.15;13.20;;;14.80;99.90;;;;;;5074158;28;20110;-75
2022/04/14 10:23:00;;;;;;;28.05;13.30;;;15.30;99.90;;;;;;5074072;28;20117;-69
2022/04/14 10:25:27;;;;;;;23.77;14.15;;;15.30;99.90;;;;;;5054288;28;20056;-74
2022/04/14 10:27:55;;;;;;;25.73;15.02;;;15.30;99.90;;;;;;5073822;28;20369;-71
2022/04/14 10:30:21;;;;;;;24.63;14.40;;;15.20;99.90;;;;;;5073783;28;20052;-72
2022/04/14 10:32:47;;;;;;;26.00;14.82;;;14.90;99.90;;;;;;5026658;28;20052;-74
2022/04/14 10:35:12;;;;;;;;;;;15.10;99.90;;;;;;5073006;28;20052;-74
2022/04/14 10:37:46;;;;;;;27.30;14.13;;;15.10;99.90;;;;;;5047036;28;19928;-72
2022/04/14 10:40:13;;;;;;;22.45;14.52;;;15.10;99.90;;;;;;5075055;28;20141;-72
2022/04/14 10:42:49;;;;;;;20.65;13.57;;;15.20;99.90;;;;;;5074864;28;20040;-74
2022/04/14 10:45:22;;;;;;;21.95;13.63;;;14.90;99.90;;;;;;5057189;28;20052;-76
2022/04/14 10:47:50;;;;;;;20.60;13.75;;;14.90;99.90;;;;;;5074752;28;20048;-75
2022/04/14 10:50:21;;;;;;;19.00;12.73;;;15.00;99.90;;;;;;5074659;28;20093;-73
2022/04/14 10:53:04;;;;;;;19.67;12.23;;;14.80;99.90;;;;;;5056449;28;20060;-71
2022/04/14 10:55:44;;;;;;;18.63;10.50;;;15.10;99.90;;;;;;5074719;28;20052;-70
2022/04/14 10:58:28;;;;;;;18.75;10.95;;;15.10;99.90;;;;;;5056774;28;20052;-70
2022/04/14 11:00:54;;;;;;;15.70;8.40;;;15.10;99.90;;;;;;5074489;28;20044;-76
2022/04/14 11:03:40;;;;;;;;;;;15.10;99.90;;;;;;5057177;28;20052;-70
2022/04/14 11:06:05;;;;;;;14.35;7.90;;;15.40;99.90;;;;;;5074182;28;19925;-72
2022/04/14 11:08:32;;;;;;;12.10;7.85;;;15.10;99.90;;;;;;5056387;28;20040;-71
2022/04/14 11:11:12;;;;;;;12.02;7.20;;;15.50;99.90;;;;;;5074293;28;20412;-71
2022/04/14 11:13:53;;;;;;;15.82;9.63;;;15.60;99.90;;;;;;5074315;28;20459;-73
2022/04/14 11:16:44;;;;;;;18.00;9.50;;;15.50;99.90;;;;;;5074214;28;20247;-75
2022/04/14 11:19:20;;;;;;;20.77;11.27;;;15.40;99.90;;;;;;5055998;28;20055;-74
2022/04/14 11:22:05;;;;;;;22.38;12.20;;;15.40;99.90;;;;;;5074082;28;20044;-74
2022/04/14 11:24:39;;;;;;;18.80;10.68;;;15.80;99.90;;;;;;5074112;28;20129;-76
2022/04/14 11:27:17;;;;;;;20.63;11.07;;;15.90;99.90;;;;;;5074022;28;20109;-71
2022/04/14 11:29:48;;;;;;;22.38;11.18;;;15.30;99.90;;;;;;5039742;28;20059;-77
2022/04/14 11:32:15;;;;;;;18.67;11.27;;;15.50;99.90;;;;;;5073862;28;20040;-76
2022/04/14 11:34:42;;;;;;;25.90;11.77;;;15.70;99.90;;;;;;5056193;28;20393;-75
2022/04/14 11:37:41;;;;;;;22.10;12.82;;;15.20;99.90;;;;;;5073781;28;20059;-77
2022/04/14 11:40:23;;;;;;;15.98;9.48;;;15.70;99.90;;;;;;5055314;28;20056;-76
2022/04/14 11:42:51;;;;;;;17.55;10.95;;;15.70;99.90;;;;;;5073643;28;20056;-76
2022/04/14 11:45:28;;;;;;;23.42;10.85;;;15.70;99.90;;;;;;5073661;28;20161;-73
2022/04/14 11:48:00;;;;;;;21.23;11.10;;;15.70;99.90;;;;;;5055684;28;20049;-76
2022/04/14 11:50:27;;;;;;;19.27;10.63;;;15.60;99.90;;;;;;5041775;28;20044;-75
2022/04/14 11:53:01;;;;;;;16.50;10.25;;;15.80;99.90;;;;;;5073392;28;20051;-73
2022/04/14 11:55:41;;;;;;;20.02;10.63;;;15.40;99.90;;;;;;5073269;28;20044;-72
2022/04/14 11:58:12;;;;;;;18.30;9.95;;;15.50;99.90;;;;;;5055820;28;20067;-73
2022/04/14 12:00:50;;;;;;;25.30;11.45;;;15.50;99.90;;;;;;5073358;28;20044;-76
2022/04/14 12:03:29;;;;;;;17.13;10.38;;;15.00;99.90;;;;;;5073268;28;20044;-76
2022/04/14 12:05:55;;;;;;;18.10;9.88;;;15.70;99.90;;;;;;5073318;28;20045;-74
2022/04/14 12:08:21;;;;;;;;;;;15.40;99.90;;;;;;5073618;28;20056;-74
2022/04/14 12:10:46;;;;;;;18.10;9.77;;;15.10;99.90;;;;;;5055494;28;20007;-75
2022/04/14 12:13:12;;;;;;;;;;;15.30;99.90;;;;;;5055309;28;20132;-72
2022/04/14 12:15:38;;;;;;;14.80;8.93;;;14.70;99.90;;;;;;5073121;28;19990;-77
2022/04/14 12:18:08;;;;;;;;;;;14.80;99.90;;;;;;5073414;28;20165;-76
2022/04/14 12:20:40;;;;;;;18.08;9.68;;;14.80;99.90;;;;;;5069491;28;19924;-77
2022/04/14 12:23:09;;;;;;;16.40;10.13;;;14.30;99.90;;;;;;5071152;28;20120;-72
2022/04/14 12:25:37;;;;;;;17.13;9.85;;;14.20;99.90;;;;;;5055172;28;20131;-73
2022/04/14 12:28:03;;;;;;;15.25;9.13;;;14.20;99.90;;;;;;5072879;28;20044;-76
2022/04/14 12:30:30;;;;;;;18.23;9.65;;;14.40;99.90;;;;;;5072108;28;20049;-74
2022/04/14 12:33:05;;;;;;;18.40;9.75;;;14.70;99.90;;;;;;5054930;28;20119;-75
2022/04/14 12:35:38;;;;;;;17.75;8.52;;;14.50;99.90;;;;;;5072796;28;20484;-77
2022/04/14 12:38:18;;;;;;;15.10;8.85;;;14.40;99.90;;;;;;5072273;28;20512;-72